Time;durP1;ratioP1;P1;durP2;ratioP2;P2;SDS_P1;SDS_P2;PMS_P1;PMS_P2;Temp;Humidity;BMP_temperature;BMP_pressure;BME280_temperature;BME280_humidity;BME280_pressure;Samples;Min_cycle;Max_cycle;Signal;HPM_P1;HPM_P2
2022/08/19 00:01:42;;;;;;;16.70;8.38;;;18.30;99.90;;;;;;5082545;28;20105;-64
2022/08/19 00:04:11;;;;;;;11.55;7.95;;;18.30;99.90;;;;;;5074661;28;20044;-64
2022/08/19 00:06:38;;;;;;;13.18;8.75;;;18.30;99.90;;;;;;5079652;28;20076;-64
2022/08/19 00:09:06;;;;;;;10.15;8.32;;;18.20;99.90;;;;;;5072179;28;20037;-65
2022/08/19 00:11:33;;;;;;;13.85;7.63;;;18.20;99.90;;;;;;5081942;28;20395;-64
2022/08/19 00:13:58;;;;;;;15.70;8.93;;;18.20;99.90;;;;;;5078489;28;20058;-64
2022/08/19 00:16:24;;;;;;;;;;;18.20;99.90;;;;;;5077039;28;20201;-64
2022/08/19 00:18:50;;;;;;;;;;;18.20;99.90;;;;;;5064455;28;19916;-64
2022/08/19 00:21:16;;;;;;;;;;;18.20;99.90;;;;;;5069857;28;20291;-64
2022/08/19 00:23:42;;;;;;;;;;;18.20;99.90;;;;;;5065400;28;20597;-64
2022/08/19 00:26:08;;;;;;;;;;;18.20;99.90;;;;;;5083677;28;20019;-65
2022/08/19 00:28:35;;;;;;;;;;;18.20;99.90;;;;;;5063677;28;20007;-64
2022/08/19 00:31:02;;;;;;;;;;;18.30;99.90;;;;;;5060975;28;19916;-64
2022/08/19 00:33:28;;;;;;;;;;;18.30;99.90;;;;;;5065947;28;19927;-64
2022/08/19 00:35:55;;;;;;;;;;;18.20;99.90;;;;;;5067402;28;19928;-64
2022/08/19 00:38:22;;;;;;;;;;;18.30;99.90;;;;;;5067358;28;19932;-64
2022/08/19 00:40:48;;;;;;;;;;;18.30;99.90;;;;;;5065275;28;19924;-64
2022/08/19 00:43:17;;;;;;;;;;;18.30;99.90;;;;;;5062855;28;19917;-64
2022/08/19 00:45:43;;;;;;;;;;;18.30;99.90;;;;;;5066321;28;19920;-64
2022/08/19 00:48:09;;;;;;;;;;;18.20;99.90;;;;;;5067691;28;19924;-64
2022/08/19 00:50:35;;;;;;;;;;;18.20;99.90;;;;;;5061083;28;20391;-64
2022/08/19 00:53:04;;;;;;;;;;;18.20;99.90;;;;;;5065375;28;19998;-66
2022/08/19 00:55:30;;;;;;;;;;;18.20;99.90;;;;;;5059452;28;19912;-65
2022/08/19 00:57:57;;;;;;;;;;;18.20;99.90;;;;;;5062678;28;19916;-64
2022/08/19 01:00:24;;;;;;;;;;;18.20;99.90;;;;;;5067304;28;19938;-64
2022/08/19 01:02:50;;;;;;;;;;;18.10;99.90;;;;;;5065786;28;20339;-65
2022/08/19 01:05:20;;;;;;;;;;;18.10;99.90;;;;;;5061275;28;19923;-64
2022/08/19 01:07:47;;;;;;;;;;;18.10;99.90;;;;;;5067739;28;19916;-65
2022/08/19 01:10:18;;;;;;;;;;;18.10;99.90;;;;;;5060735;28;19920;-65
2022/08/19 01:12:44;;;;;;;;;;;18.10;99.90;;;;;;5065720;28;19981;-64
2022/08/19 01:15:13;;;;;;;;;;;18.10;99.90;;;;;;5061512;28;19928;-64
2022/08/19 01:17:39;;;;;;;;;;;18.10;99.90;;;;;;5066900;28;19921;-65
2022/08/19 01:20:07;;;;;;;;;;;18.10;99.90;;;;;;5059766;28;20372;-64
2022/08/19 01:22:41;;;;;;;;;;;18.10;99.90;;;;;;5065605;28;20380;-65
2022/08/19 01:25:07;;;;;;;;;;;18.10;99.90;;;;;;5067592;28;19916;-64
2022/08/19 01:27:39;;;;;;;;;;;18.10;99.90;;;;;;5066941;28;19973;-64
2022/08/19 01:30:06;;;;;;;;;;;18.20;99.90;;;;;;5057515;28;20304;-64
2022/08/19 01:32:31;;;;;;;;;;;18.10;99.90;;;;;;5064607;28;19920;-64
2022/08/19 01:34:57;;;;;;;;;;;18.00;99.90;;;;;;5058095;28;19927;-64
2022/08/19 01:37:23;;;;;;;;;;;18.00;99.90;;;;;;5064485;28;19917;-64
2022/08/19 01:39:49;;;;;;;;;;;18.00;99.90;;;;;;5057242;28;19916;-64
2022/08/19 01:42:14;;;;;;;;;;;18.00;99.90;;;;;;5064445;28;19927;-64
2022/08/19 01:44:43;;;;;;;;;;;18.00;99.90;;;;;;5065165;28;20010;-64
2022/08/19 01:47:09;;;;;;;;;;;17.90;99.90;;;;;;5066132;28;20631;-65
2022/08/19 01:49:35;;;;;;;;;;;18.00;99.90;;;;;;5063416;28;19985;-65
2022/08/19 01:52:01;;;;;;;;;;;17.90;99.90;;;;;;5066620;28;20384;-64
2022/08/19 01:54:26;;;;;;;;;;;17.90;99.90;;;;;;5063549;28;19924;-64
2022/08/19 01:56:54;;;;;;;;;;;17.80;99.90;;;;;;5065847;28;19920;-64
2022/08/19 01:59:21;;;;;;;;;;;17.80;99.90;;;;;;5062629;28;19916;-64
2022/08/19 02:01:46;;;;;;;;;;;17.80;99.90;;;;;;5066640;28;19974;-64
2022/08/19 02:04:12;;;;;;;;;;;17.80;99.90;;;;;;5064942;28;19924;-64
2022/08/19 02:06:38;;;;;;;;;;;17.80;99.90;;;;;;5067199;28;19920;-65
2022/08/19 02:09:04;;;;;;;;;;;17.80;99.90;;;;;;5065068;28;19950;-65
2022/08/19 02:11:31;;;;;;;;;;;17.70;99.90;;;;;;5068346;28;19943;-64
2022/08/19 02:13:57;;;;;;;;;;;17.70;99.90;;;;;;5061231;28;19962;-66
2022/08/19 02:16:23;;;;;;;;;;;17.70;99.90;;;;;;5067346;28;19969;-64
2022/08/19 02:18:48;;;;;;;;;;;17.70;99.90;;;;;;5064490;28;19916;-65
2022/08/19 02:21:15;;;;;;;;;;;17.70;99.90;;;;;;5067317;28;20559;-64
2022/08/19 02:23:41;;;;;;;;;;;17.60;99.90;;;;;;5061141;28;19916;-65
2022/08/19 02:26:07;;;;;;;;;;;17.50;99.90;;;;;;5061733;28;19925;-64
2022/08/19 02:28:33;;;;;;;;;;;17.50;99.90;;;;;;5067888;28;19920;-64
2022/08/19 02:31:00;;;;;;;;;;;17.50;99.90;;;;;;5064511;28;19916;-64
2022/08/19 02:33:26;;;;;;;;;;;17.50;99.90;;;;;;5060772;28;19917;-64
2022/08/19 02:35:52;;;;;;;;;;;17.50;99.90;;;;;;5065610;28;20052;-64
2022/08/19 02:38:26;;;;;;;;;;;17.50;99.90;;;;;;5060293;28;20408;-65
2022/08/19 02:41:03;;;;;;;;;;;17.50;99.90;;;;;;5063885;28;20284;-64
2022/08/19 02:43:29;;;;;;;;;;;17.50;99.90;;;;;;5060036;28;20090;-65
2022/08/19 02:45:55;;;;;;;;;;;17.50;99.90;;;;;;5066743;28;19921;-64
2022/08/19 02:48:21;;;;;;;;;;;17.40;99.90;;;;;;5062990;28;20053;-64
2022/08/19 02:50:52;;;;;;;;;;;17.40;99.90;;;;;;5062929;28;19961;-65
2022/08/19 02:53:18;;;;;;;;;;;17.30;99.90;;;;;;5060158;28;19928;-64
2022/08/19 02:55:44;;;;;;;;;;;17.30;99.90;;;;;;5059738;28;19921;-65
2022/08/19 02:58:10;;;;;;;;;;;17.20;99.90;;;;;;5061819;28;19956;-65
2022/08/19 03:00:42;;;;;;;;;;;17.30;99.90;;;;;;5065523;28;19946;-64
2022/08/19 03:03:07;;;;;;;;;;;17.30;99.90;;;;;;5061513;28;20394;-65
2022/08/19 03:05:34;;;;;;;;;;;17.30;99.90;;;;;;5058930;28;20692;-64
2022/08/19 03:07:59;;;;;;;;;;;17.20;99.90;;;;;;5063593;28;19926;-64
2022/08/19 03:10:25;;;;;;;;;;;17.20;99.90;;;;;;5056596;28;20287;-64
2022/08/19 03:12:50;;;;;;;;;;;17.20;99.90;;;;;;5060656;28;19990;-64
2022/08/19 03:15:15;;;;;;;;;;;17.10;99.90;;;;;;5061400;28;20339;-64
2022/08/19 03:17:41;;;;;;;;;;;17.10;99.90;;;;;;5065325;28;19916;-63
2022/08/19 03:20:07;;;;;;;;;;;17.10;99.90;;;;;;5052277;28;20450;-64
2022/08/19 03:22:32;;;;;;;;;;;17.10;99.90;;;;;;5063674;28;19938;-64
2022/08/19 03:24:58;;;;;;;;;;;17.10;99.90;;;;;;5054466;28;20767;-64
2022/08/19 03:27:24;;;;;;;;;;;17.00;99.90;;;;;;5062732;28;19932;-64
2022/08/19 03:29:50;;;;;;;;;;;17.00;99.90;;;;;;5053339;28;19917;-64
2022/08/19 03:32:16;;;;;;;;;;;17.00;99.90;;;;;;5063045;28;19967;-64
2022/08/19 03:34:41;;;;;;;;;;;17.00;99.90;;;;;;5055761;28;19956;-65
2022/08/19 03:37:08;;;;;;;;;;;16.90;99.90;;;;;;5062048;28;20921;-64
2022/08/19 03:39:35;;;;;;;;;;;16.90;99.90;;;;;;5062116;28;19924;-64
2022/08/19 03:42:02;;;;;;;;;;;16.90;99.90;;;;;;5064475;28;20403;-64
2022/08/19 03:44:29;;;;;;;;;;;16.90;99.90;;;;;;5059498;28;20410;-66
2022/08/19 03:46:56;;;;;;;;;;;16.80;99.90;;;;;;5065236;28;19928;-64
2022/08/19 03:49:23;;;;;;;;;;;16.80;99.90;;;;;;5058313;28;20019;-65
2022/08/19 03:51:50;;;;;;;;;;;16.70;99.90;;;;;;5063267;28;19916;-64
2022/08/19 03:54:16;;;;;;;;;;;16.70;99.90;;;;;;5059934;28;19960;-64
2022/08/19 03:56:44;;;;;;;;;;;16.70;99.90;;;;;;5064865;28;19920;-64
2022/08/19 03:59:11;;;;;;;;;;;16.70;99.90;;;;;;5063710;28;20027;-65
2022/08/19 04:01:36;;;;;;;;;;;16.70;99.90;;;;;;5068748;28;19927;-64
2022/08/19 04:04:02;;;;;;;;;;;16.70;99.90;;;;;;5063299;28;19938;-65
2022/08/19 04:06:30;;;;;;;;;;;16.70;99.90;;;;;;5068705;28;19968;-64
2022/08/19 04:08:57;;;;;;;;;;;16.70;99.90;;;;;;5064689;28;19920;-65
2022/08/19 04:11:24;;;;;;;;;;;16.60;99.90;;;;;;5062840;28;20026;-64
2022/08/19 04:13:52;;;;;;;;;;;16.60;99.90;;;;;;5062881;28;20280;-64
2022/08/19 04:16:19;;;;;;;;;;;16.60;99.90;;;;;;5061418;28;19920;-64
2022/08/19 04:18:45;;;;;;;;;;;16.60;99.90;;;;;;5066000;28;19920;-64
2022/08/19 04:21:15;;;;;;;;;;;16.70;99.90;;;;;;5066865;28;19920;-64
2022/08/19 04:23:40;;;;;;;;;;;16.70;99.90;;;;;;5065163;28;19969;-64
2022/08/19 04:26:06;;;;;;;;;;;16.70;99.90;;;;;;5059717;28;20441;-64
2022/08/19 04:28:31;;;;;;;;;;;16.70;99.90;;;;;;5063251;28;19927;-64
2022/08/19 04:30:58;;;;;;;;;;;16.70;99.90;;;;;;5060204;28;19923;-64
2022/08/19 04:33:24;;;;;;;;;;;16.70;99.90;;;;;;5066455;28;20038;-64
2022/08/19 04:35:51;;;;;;;;;;;16.70;99.90;;;;;;5060863;28;19923;-64
2022/08/19 04:38:18;;;;;;;;;;;16.70;99.90;;;;;;5063986;28;19913;-64
2022/08/19 04:43:31;;;;;;;;;;;16.60;99.90;;;;;;5065738;28;20250;-64
2022/08/19 04:45:57;;;;;;;;;;;16.60;99.90;;;;;;5066363;28;19920;-64
2022/08/19 04:48:26;;;;;;;;;;;16.60;99.90;;;;;;5068451;28;19928;-64
2022/08/19 04:50:57;;;;;;;;;;;16.60;99.90;;;;;;5061222;28;19920;-64
2022/08/19 04:53:28;;;;;;;;;;;16.70;99.90;;;;;;5061655;28;20392;-64
2022/08/19 04:55:54;;;;;;;;;;;16.70;99.90;;;;;;5065629;28;19916;-64
2022/08/19 04:58:20;;;;;;;;;;;16.70;99.90;;;;;;5061153;28;19916;-63
2022/08/19 05:00:45;;;;;;;;;;;16.70;99.90;;;;;;5066714;28;19973;-65
2022/08/19 05:03:11;;;;;;;;;;;16.70;99.90;;;;;;5067075;28;19923;-67
2022/08/19 05:05:41;;;;;;;;;;;16.70;99.90;;;;;;5055542;28;19932;-64
2022/08/19 05:08:07;;;;;;;;;;;16.80;99.90;;;;;;5064322;28;19912;-64
2022/08/19 05:10:35;;;;;;;;;;;16.80;99.90;;;;;;5060239;28;19927;-64
2022/08/19 05:13:00;;;;;;;;;;;16.90;99.90;;;;;;5066991;28;19973;-64
2022/08/19 05:15:26;;;;;;;;;;;16.90;99.90;;;;;;5059243;28;19916;-63
2022/08/19 05:23:21;;;;;;;;;;;17.10;99.90;;;;;;5065603;28;19920;-64
2022/08/19 05:25:46;;;;;;;;;;;17.00;99.90;;;;;;5064550;28;19928;-64
2022/08/19 05:28:12;;;;;;;;;;;17.00;99.90;;;;;;5062705;28;19923;-64
2022/08/19 05:30:38;;;;;;;;;;;17.00;99.90;;;;;;5058823;28;19939;-64
2022/08/19 05:33:03;;;;;;;;;;;17.00;99.90;;;;;;5062912;28;20058;-64
2022/08/19 05:35:30;;;;;;;;;;;17.10;99.90;;;;;;5057552;28;19931;-63
2022/08/19 05:37:56;;;;;;;;;;;17.10;99.90;;;;;;5063755;28;19916;-63
2022/08/19 05:40:22;;;;;;;;;;;17.20;99.90;;;;;;5059717;28;19962;-63
2022/08/19 05:42:49;;;;;;;;;;;17.20;99.90;;;;;;5067044;28;19935;-64
2022/08/19 05:45:15;;;;;;;;;;;17.20;99.90;;;;;;5059058;28;19932;-64
2022/08/19 05:47:40;;;;;;;;;;;17.30;99.90;;;;;;5062589;28;19928;-64
2022/08/19 05:50:06;;;;;;;;;;;17.30;99.90;;;;;;5066056;28;19917;-64
2022/08/19 05:52:31;;;;;;;;;;;17.40;99.90;;;;;;5067748;28;19927;-63
2022/08/19 05:54:57;;;;;;;;;;;17.50;99.90;;;;;;5058583;28;19920;-64
2022/08/19 05:57:23;;;;;;;;;;;17.50;99.90;;;;;;5065975;28;20599;-63
2022/08/19 05:59:51;;;;;;;;;;;17.50;99.90;;;;;;5062418;28;19920;-64
2022/08/19 06:02:16;;;;;;;;;;;17.60;99.90;;;;;;5063270;28;19960;-60
2022/08/19 06:04:44;;;;;;;;;;;17.70;99.90;;;;;;5059608;28;19964;-64
2022/08/19 06:07:10;;;;;;;;;;;17.80;99.90;;;;;;5065866;28;19951;-64
2022/08/19 06:09:37;;;;;;;;;;;17.80;99.90;;;;;;5060535;28;20312;-64
2022/08/19 06:12:04;;;;;;;;;;;17.90;99.90;;;;;;5063490;28;19920;-63
2022/08/19 06:14:30;;;;;;;;;;;17.90;99.90;;;;;;5060975;28;19916;-64
2022/08/19 06:16:57;;;;;;;;;;;18.00;99.90;;;;;;5062446;28;20303;-64
2022/08/19 06:19:24;;;;;;;;;;;18.10;99.90;;;;;;5066906;28;19924;-63
2022/08/19 06:21:50;;;;;;;;;;;18.10;99.90;;;;;;5065646;28;19956;-63
2022/08/19 06:24:17;;;;;;;;;;;18.20;99.90;;;;;;5066105;28;19920;-63
2022/08/19 06:26:44;;;;;;;;;;;18.50;99.90;;;;;;5065797;28;20369;-62
2022/08/19 06:29:10;;;;;;;;;;;19.40;99.90;;;;;;5059894;28;19975;-62
2022/08/19 06:31:36;;;;;;;;;;;20.20;99.90;;;;;;5059771;28;19965;-62
2022/08/19 06:34:03;;;;;;;;;;;20.70;99.90;;;;;;5065296;28;19920;-63
2022/08/19 06:36:33;;;;;;;;;;;21.30;99.90;;;;;;5059898;28;20296;-62
2022/08/19 06:39:00;;;;;;;;;;;21.70;99.90;;;;;;5059495;28;19920;-62
2022/08/19 06:41:26;;;;;;;;;;;21.90;99.90;;;;;;5060031;28;19931;-63
2022/08/19 06:43:52;;;;;;;;;;;21.80;99.90;;;;;;5060587;28;19916;-63
2022/08/19 06:46:19;;;;;;;;;;;21.60;99.90;;;;;;5063331;28;20641;-63
2022/08/19 06:48:45;;;;;;;;;;;21.30;99.90;;;;;;5064549;28;19951;-67
2022/08/19 06:51:15;;;;;;;;;;;21.00;99.90;;;;;;5064003;28;19917;-66
2022/08/19 06:53:46;;;;;;;;;;;20.70;99.90;;;;;;5064975;28;20125;-65
2022/08/19 06:56:15;;;;;;;;;;;20.40;99.90;;;;;;5058745;28;19920;-64
2022/08/19 06:58:41;;;;;;;;;;;20.00;99.90;;;;;;5063436;28;20342;-67
2022/08/19 07:01:07;;;;;;;;;;;19.60;99.90;;;;;;5065120;28;20014;-62
2022/08/19 07:03:34;;;;;;;;;;;19.40;99.90;;;;;;5064594;28;20419;-63
2022/08/19 07:06:04;;;;;;;;;;;19.40;99.90;;;;;;5065364;28;19921;-61
2022/08/19 07:08:29;;;;;;;;;;;19.40;99.90;;;;;;5061510;28;19970;-63
2022/08/19 07:10:55;;;;;;;;;;;19.40;99.90;;;;;;5062848;28;19912;-62
2022/08/19 07:13:21;;;;;;;;;;;19.40;99.90;;;;;;5065383;28;19924;-62
2022/08/19 07:15:47;;;;;;;;;;;19.40;99.90;;;;;;5066703;28;19962;-62
2022/08/19 07:18:12;;;;;;;;;;;19.40;99.90;;;;;;5061268;28;19916;-64
2022/08/19 07:20:39;;;;;;;;;;;19.40;99.90;;;;;;5065409;28;19923;-62
2022/08/19 07:23:04;;;;;;;;;;;19.40;99.90;;;;;;5060608;28;19913;-63
2022/08/19 07:25:30;;;;;;;;;;;19.50;99.90;;;;;;5063670;28;19920;-63
2022/08/19 07:27:55;;;;;;;;;;;19.40;99.90;;;;;;5062467;28;19917;-64
2022/08/19 07:30:22;;;;;;;;;;;19.50;99.90;;;;;;5065504;28;20561;-62
2022/08/19 07:32:50;;;;;;;;;;;19.60;99.90;;;;;;5066679;28;19928;-63
2022/08/19 07:35:19;;;;;;;;;;;19.60;99.90;;;;;;5067917;28;19943;-63
2022/08/19 07:37:44;;;;;;;;;;;19.60;99.90;;;;;;5065799;28;19969;-64
2022/08/19 07:40:11;;;;;;;;;;;19.60;99.90;;;;;;5064935;28;19920;-64
2022/08/19 07:42:36;;;;;;;;;;;19.60;99.90;;;;;;5068707;28;20387;-59
2022/08/19 07:45:02;;;;;;;;;;;19.70;99.90;;;;;;5068206;28;19920;-62
2022/08/19 07:47:28;;;;;;;;;;;19.70;99.90;;;;;;5062463;28;20642;-62
2022/08/19 07:49:54;;;;;;;;;;;19.80;99.90;;;;;;5058046;28;20116;-62
2022/08/19 07:52:19;;;;;;;;;;;19.80;99.90;;;;;;5063156;28;19916;-62
2022/08/19 07:54:45;;;;;;;;;;;19.70;99.90;;;;;;5068194;28;19920;-63
2022/08/19 07:57:11;;;;;;;;;;;19.80;99.90;;;;;;5067497;28;21436;-61
2022/08/19 07:59:37;;;;;;;;;;;19.80;99.90;;;;;;5067871;28;19920;-62
2022/08/19 08:02:03;;;;;;;;;;;20.10;99.90;;;;;;5066738;28;19927;-62
2022/08/19 08:09:57;;;;;;;;;;;21.00;99.90;;;;;;5063642;28;20399;-63
2022/08/19 08:12:28;;;;;;;;;;;21.50;99.90;;;;;;5065947;28;19963;-63
2022/08/19 08:14:55;;;;;;;;;;;22.30;99.90;;;;;;5061414;28;19916;-63
2022/08/19 08:17:23;;;;;;;;;;;22.40;99.90;;;;;;5059560;28;20577;-64
2022/08/19 08:19:50;;;;;;;;;;;22.50;99.90;;;;;;5074733;28;19927;-62
2022/08/19 08:25:05;;;;;;;;;;;22.90;99.90;;;;;;5070476;28;19920;-63
2022/08/19 08:27:31;;;;;;;;;;;23.60;99.10;;;;;;5065008;28;19943;-63
2022/08/19 08:29:57;;;;;;;;;;;24.20;98.30;;;;;;5066318;28;20376;-63
2022/08/19 08:32:23;;;;;;;;;;;24.40;98.00;;;;;;5063965;28;19920;-63
2022/08/19 08:34:48;;;;;;;;;;;23.90;97.40;;;;;;5058029;28;19971;-63
2022/08/19 08:37:14;;;;;;;;;;;24.20;97.30;;;;;;5062308;28;19940;-63
2022/08/19 08:39:39;;;;;;;;;;;25.20;95.80;;;;;;5059552;28;20427;-62
2022/08/19 08:42:16;;;;;;;;;;;25.00;96.50;;;;;;5066373;28;19973;-64
2022/08/19 08:44:45;;;;;;;;;;;24.10;96.70;;;;;;5065865;28;19916;-63
2022/08/19 08:47:13;;;;;;;;;;;23.90;97.50;;;;;;5063154;28;20376;-62
2022/08/19 08:49:41;;;;;;;;;;;23.80;97.00;;;;;;5064560;28;19948;-63
2022/08/19 08:52:11;;;;;;;;;;;23.50;98.30;;;;;;5068612;28;19921;-62
2022/08/19 08:54:43;;;;;;;;;;;22.90;98.90;;;;;;5064231;28;19978;-63
2022/08/19 08:57:17;;;;;;;;;;;22.50;99.90;;;;;;5066503;28;19916;-62
2022/08/19 08:59:45;;;;;;;;;;;21.90;99.90;;;;;;5063911;28;20035;-63
2022/08/19 09:02:10;;;;;;;;;;;21.70;99.90;;;;;;5068940;28;19917;-63
2022/08/19 09:04:37;;;;;;;;;;;21.70;99.90;;;;;;5058600;28;19940;-63
2022/08/19 09:07:21;;;;;;;;;;;21.50;99.90;;;;;;5079099;28;19925;-63
2022/08/19 09:09:49;;;;;;;;;;;21.30;99.90;;;;;;5065443;28;19972;-62
2022/08/19 09:12:31;;;;;;;;;;;21.30;99.90;;;;;;5060441;28;19920;-63
2022/08/19 09:14:59;;;;;;;;;;;21.20;99.90;;;;;;5062960;28;20364;-62
2022/08/19 09:17:30;;;;;;;;;;;21.10;99.90;;;;;;5067324;28;19955;-63
2022/08/19 09:20:03;;;;;;;;;;;21.10;99.90;;;;;;5060826;28;19916;-63
2022/08/19 09:22:29;;;;;;;;;;;21.00;99.90;;;;;;5064607;28;19920;-63
2022/08/19 09:24:55;;;;;;;;;;;21.10;99.90;;;;;;5060088;28;19916;-62
2022/08/19 09:27:23;;;;;;;;;;;21.20;99.90;;;;;;5063783;28;20498;-62
2022/08/19 09:29:49;;;;;;;;;;;21.40;99.90;;;;;;5055532;28;19917;-63
2022/08/19 09:32:15;;;;;;;;;;;21.30;99.90;;;;;;5073523;28;19930;-63
2022/08/19 09:34:41;;;;;;;;;;;21.20;99.90;;;;;;5064319;28;20589;-63
2022/08/19 09:37:06;;;;;;;;;;;21.10;99.90;;;;;;5066926;28;20316;-63
2022/08/19 09:39:32;;;;;;;;;;;20.80;99.90;;;;;;5058647;28;19916;-63
2022/08/19 09:41:57;;;;;;;;;;;20.80;99.90;;;;;;5066090;28;20419;-63
2022/08/19 09:44:23;;;;;;;;;;;20.80;99.90;;;;;;5065365;28;20428;-63
2022/08/19 09:46:50;;;;;;;;;;;21.20;99.90;;;;;;5065932;28;20399;-63
2022/08/19 09:49:17;;;;;;;;;;;21.40;99.90;;;;;;5063936;28;19916;-63
2022/08/19 09:51:43;;;;;;;;;;;21.60;99.90;;;;;;5066363;28;19916;-63
2022/08/19 09:54:08;;;;;;;;;;;21.60;99.90;;;;;;5057561;28;20005;-63
2022/08/19 09:56:34;;;;;;;;;;;21.80;99.90;;;;;;5066730;28;19930;-63
2022/08/19 09:59:00;;;;;;;;;;;22.10;99.90;;;;;;5062656;28;19920;-63
2022/08/19 10:01:27;;;;;;;;;;;22.00;99.90;;;;;;5075373;28;19952;-63
2022/08/19 10:03:54;;;;;;;;;;;21.80;99.90;;;;;;5059855;28;19966;-63
2022/08/19 10:06:20;;;;;;;;;;;21.70;99.90;;;;;;5058545;28;19932;-63
2022/08/19 10:08:46;;;;;;;;;;;21.40;99.90;;;;;;5057521;28;20372;-62
2022/08/19 10:11:14;;;;;;;;;;;21.40;99.90;;;;;;5065578;28;20040;-62
2022/08/19 10:13:39;;;;;;;;;;;21.50;99.90;;;;;;5064085;28;19920;-63
2022/08/19 10:16:07;;;;;;;;;;;21.70;99.90;;;;;;5066599;28;19921;-63
2022/08/19 10:18:34;;;;;;;;;;;21.70;99.70;;;;;;5064093;28;19920;-63
2022/08/19 10:21:08;;;;;;;;;;;22.00;99.80;;;;;;5060669;28;19917;-63
2022/08/19 10:23:34;;;;;;;;;;;22.00;99.70;;;;;;5065565;28;19916;-63
2022/08/19 10:26:00;;;;;;;;;;;22.00;99.80;;;;;;5064791;28;19931;-63
2022/08/19 10:28:26;;;;;;;;;;;21.80;99.90;;;;;;5065785;28;19916;-63
2022/08/19 10:30:52;;;;;;;;;;;21.70;99.90;;;;;;5073172;28;20340;-61
2022/08/19 10:33:17;;;;;;;;;;;21.50;99.90;;;;;;5067377;28;19927;-66
2022/08/19 10:35:46;;;;;;;;;;;21.50;99.90;;;;;;5069822;28;20027;-64
2022/08/19 10:38:12;;;;;;;;;;;21.70;99.90;;;;;;5059401;28;20664;-63
2022/08/19 10:40:37;;;;;;;;;;;21.80;99.40;;;;;;5057878;28;19926;-65
2022/08/19 10:43:03;;;;;;;;;;;22.00;99.60;;;;;;5064501;28;19916;-65
2022/08/19 10:45:28;;;;;;;;;;;22.00;99.20;;;;;;5061480;28;19966;-64
2022/08/19 10:47:54;;;;;;;;;;;22.00;99.90;;;;;;5065489;28;20403;-65
2022/08/19 10:53:05;;;;;;;;;;;22.00;99.40;;;;;;5062922;28;19916;-63
2022/08/19 10:58:17;;;;;;;;;;;22.40;98.80;;;;;;5062298;28;19920;-64
2022/08/19 11:00:43;;;;;;;;;;;22.70;96.70;;;;;;5066186;28;19924;-65
2022/08/19 11:03:09;;;;;;;;;;;22.80;97.10;;;;;;5065576;28;20269;-63
2022/08/19 11:05:35;;;;;;;;;;;22.60;96.40;;;;;;5065045;28;19920;-63
2022/08/19 11:08:00;;;;;;;;;;;22.60;97.10;;;;;;5063753;28;19924;-63
2022/08/19 11:10:26;;;;;;;;;;;22.50;97.10;;;;;;5062315;28;19924;-64
2022/08/19 11:12:54;;;;;;;;;;;22.30;97.10;;;;;;5060900;28;20549;-66
2022/08/19 11:15:20;;;;;;;;;;;22.20;97.30;;;;;;5067957;28;19952;-65
2022/08/19 11:17:45;;;;;;;;;;;22.20;97.20;;;;;;5058831;28;19955;-65
2022/08/19 11:20:12;;;;;;;;;;;22.20;97.40;;;;;;5067100;28;20406;-65
2022/08/19 11:22:38;;;;;;;;;;;22.10;96.50;;;;;;5062503;28;20578;-64
2022/08/19 11:25:04;;;;;;;;;;;22.00;97.50;;;;;;5058642;28;20058;-63
2022/08/19 11:27:30;;;;;;;;;;;22.10;97.80;;;;;;5066472;28;20015;-63
2022/08/19 11:29:55;;;;;;;;;;;22.20;97.10;;;;;;5065086;28;19917;-64
2022/08/19 11:32:21;;;;;;;;;;;22.20;96.90;;;;;;5074234;28;19920;-65
2022/08/19 11:34:47;;;;;;;;;;;22.30;96.80;;;;;;5063347;28;20411;-66
2022/08/19 11:37:12;;;;;;;;;;;22.40;96.70;;;;;;5063533;28;20005;-65
2022/08/19 11:39:38;;;;;;;;;;;22.50;96.70;;;;;;5056991;28;19921;-64
2022/08/19 11:42:54;;;;;;;;;;;22.70;96.70;;;;;;5059312;28;19916;-66
2022/08/19 11:44:50;;;;;;;;;;;23.00;96.60;;;;;;5060101;28;19920;-65
2022/08/19 11:47:16;;;;;;;;;;;23.10;95.80;;;;;;5062359;28;19935;-66
2022/08/19 11:49:42;;;;;;;;;;;23.30;94.00;;;;;;5063782;28;19920;-67
2022/08/19 11:52:07;;;;;;;;;;;23.10;92.70;;;;;;5061274;28;20410;-66
2022/08/19 11:54:33;;;;;;;;;;;22.90;92.90;;;;;;5057538;28;19917;-67
2022/08/19 11:56:59;;;;;;;;;;;22.80;93.70;;;;;;5056454;28;19920;-66
2022/08/19 11:59:26;;;;;;;;;;;22.80;93.00;;;;;;5061251;28;19921;-66
2022/08/19 12:01:52;;;;;;;;;;;23.00;93.30;;;;;;5063479;28;19920;-66
2022/08/19 12:04:17;;;;;;;;;;;23.00;93.60;;;;;;5058110;28;19920;-66
2022/08/19 12:06:43;;;;;;;;;;;22.90;93.80;;;;;;5057585;28;19927;-66
2022/08/19 12:09:09;;;;;;;;;;;22.80;93.60;;;;;;5059657;28;19916;-66
2022/08/19 12:11:36;;;;;;;;;;;22.80;94.70;;;;;;5055285;28;19962;-66
2022/08/19 12:14:02;;;;;;;;;;;22.80;92.70;;;;;;5060313;28;19920;-66
2022/08/19 12:16:28;;;;;;;;;;;22.90;93.40;;;;;;5055931;28;20471;-66
2022/08/19 12:18:54;;;;;;;;;;;22.90;93.30;;;;;;5067740;28;20392;-67
2022/08/19 12:21:22;;;;;;;;;;;23.10;92.90;;;;;;5059890;28;20344;-67
2022/08/19 12:23:49;;;;;;;;;;;23.30;92.20;;;;;;5074552;28;19921;-67
2022/08/19 12:26:15;;;;;;;;;;;23.40;92.20;;;;;;5061606;28;19920;-66
2022/08/19 12:28:41;;;;;;;;;;;23.40;91.90;;;;;;5062147;28;19916;-65
2022/08/19 12:31:07;;;;;;;;;;;23.60;92.60;;;;;;5060982;28;19995;-66
2022/08/19 12:33:33;;;;;;;;;;;23.70;91.90;;;;;;5062219;28;19920;-67
2022/08/19 12:36:05;;;;;;;;;;;23.80;92.00;;;;;;5052554;28;19943;-67
2022/08/19 12:38:32;;;;;;;;;;;24.10;91.90;;;;;;5064162;28;20023;-65
2022/08/19 12:40:58;;;;;;;;;;;24.30;92.20;;;;;;5066227;28;19967;-66
2022/08/19 12:43:24;;;;;;;;;;;24.40;91.40;;;;;;5082412;28;19960;-67
2022/08/19 12:45:50;;;;;;;;;;;24.30;92.10;;;;;;5066756;28;20396;-67
2022/08/19 12:48:15;;;;;;;;;;;23.90;91.50;;;;;;5066034;28;19917;-66
2022/08/19 12:50:42;;;;;;;;;;;23.60;91.40;;;;;;5063823;28;19923;-65
2022/08/19 12:53:07;;;;;;;;;;;23.60;91.50;;;;;;5068592;28;19921;-67
2022/08/19 12:55:33;;;;;;;;;;;23.60;90.30;;;;;;5068193;28;19923;-66
2022/08/19 12:58:01;;;;;;;;;;;23.40;90.80;;;;;;5060061;28;20357;-67
2022/08/19 13:00:27;;;;;;;;;;;23.30;90.90;;;;;;5067972;28;20395;-66
2022/08/19 13:02:52;;;;;;;;;;;23.20;91.40;;;;;;5069539;28;19927;-66
2022/08/19 13:05:20;;;;;;;;;;;23.40;91.20;;;;;;5063202;28;20371;-65
2022/08/19 13:07:46;;;;;;;;;;;23.70;92.40;;;;;;5066511;28;20562;-65
2022/08/19 13:10:15;;;;;;;;;;;24.00;91.10;;;;;;5059661;28;19920;-67
2022/08/19 13:12:41;;;;;;;;;;;24.00;90.30;;;;;;5065712;28;20360;-66
2022/08/19 13:15:08;;;;;;;;;;;24.40;91.70;;;;;;5060781;28;19928;-65
2022/08/19 13:17:34;;;;;;;;;;;24.40;90.40;;;;;;5063205;28;19944;-67
2022/08/19 13:19:59;;;;;;;;;;;24.10;91.30;;;;;;5061780;28;20474;-66
2022/08/19 13:22:25;;;;;;;;;;;23.70;90.90;;;;;;5065661;28;19921;-67
2022/08/19 13:24:50;;;;;;;;;;;23.30;91.50;;;;;;5063681;28;19963;-62
2022/08/19 13:27:16;;;;;;;;;;;23.30;92.30;;;;;;5065822;28;20016;-66
2022/08/19 13:35:11;;;;;;;;;;;23.30;91.80;;;;;;5061895;28;20192;-66
2022/08/19 13:37:42;;;;;;;;;;;23.70;91.20;;;;;;5064313;28;20447;-67
2022/08/19 13:40:12;;;;;;;;;;;23.60;89.60;;;;;;5062688;28;19932;-65
2022/08/19 13:42:41;;;;;;;;;;;23.50;87.80;;;;;;5067496;28;19916;-64
2022/08/19 13:45:06;;;;;;;;;;;23.60;87.40;;;;;;5061693;28;20364;-64
2022/08/19 13:47:34;;;;;;;;;;;23.90;87.60;;;;;;5066200;28;19955;-66
2022/08/19 13:50:00;;;;;;;;;;;24.10;88.20;;;;;;5067354;28;20007;-66
2022/08/19 13:52:25;;;;;;;;;;;24.30;86.50;;;;;;5065500;28;19933;-65
2022/08/19 13:54:51;;;;;;;;;;;24.20;88.20;;;;;;5056956;28;19916;-66
2022/08/19 13:57:16;;;;;;;;;;;24.20;89.20;;;;;;5064243;28;19920;-66
2022/08/19 13:59:42;;;;;;;;;;;24.00;89.00;;;;;;5058090;28;19951;-67
2022/08/19 14:02:07;;;;;;;;;;;23.90;89.50;;;;;;5065709;28;19917;-64
2022/08/19 14:04:33;;;;;;;;;;;23.90;90.30;;;;;;5067521;28;19923;-66
2022/08/19 14:06:58;;;;;;;;;;;23.70;89.80;;;;;;5064518;28;19928;-65
2022/08/19 14:09:24;;;;;;;;;;;23.50;90.00;;;;;;5062733;28;19946;-66
2022/08/19 14:11:50;;;;;;;;;;;23.40;90.60;;;;;;5066742;28;20368;-66
2022/08/19 14:14:16;;;;;;;;;;;23.40;90.90;;;;;;5061250;28;20389;-65
2022/08/19 14:16:42;;;;;;;;;;;23.40;91.00;;;;;;5064871;28;19970;-65
2022/08/19 14:19:08;;;;;;;;;;;23.50;90.00;;;;;;5055398;28;19964;-65
2022/08/19 14:21:34;;;;;;;;;;;23.50;91.20;;;;;;5066182;28;20017;-66
2022/08/19 14:23:59;;;;;;;;;;;23.60;89.90;;;;;;5060070;28;20372;-65
2022/08/19 14:26:25;;;;;;;;;;;23.70;90.30;;;;;;5058753;28;19920;-65
2022/08/19 14:28:52;;;;;;;;;;;23.80;90.40;;;;;;5061177;28;19923;-66
2022/08/19 14:31:18;;;;;;;;;;;23.80;90.00;;;;;;5065667;28;19920;-65
2022/08/19 14:33:47;;;;;;;;;;;23.70;90.30;;;;;;5064030;28;20013;-65
2022/08/19 14:36:12;;;;;;;;;;;23.60;90.70;;;;;;5063806;28;20467;-65
2022/08/19 14:38:39;;;;;;;;;;;23.60;91.20;;;;;;5062349;28;19920;-65
2022/08/19 14:41:12;;;;;;;;;;;23.50;90.60;;;;;;5058744;28;19926;-66